Time;durP1;ratioP1;P1;durP2;ratioP2;P2;SDS_P1;SDS_P2;PMS_P1;PMS_P2;Temp;Humidity;BMP_temperature;BMP_pressure;BME280_temperature;BME280_humidity;BME280_pressure;Samples;Min_cycle;Max_cycle;Signal;HPM_P1;HPM_P2
2023/01/04 00:00:33;;;;;;;2.20;1.90;;;;;;;;;;10366225;28;20208;-64
2023/01/04 00:05:33;;;;;;;1.90;1.50;;;;;;;;;;10364947;28;20235;-64
2023/01/04 00:10:34;;;;;;;9.03;1.60;;;;;;;;;;10366584;28;20196;-64
2023/01/04 00:15:34;;;;;;;3.27;1.80;;;;;;;;;;10364786;28;20226;-64
2023/01/04 00:20:34;;;;;;;3.20;1.60;;;;;;;;;;10366052;28;20193;-61
2023/01/04 00:25:36;;;;;;;4.53;1.60;;;;;;;;;;10364800;28;20243;-62
2023/01/04 00:30:37;;;;;;;1.97;1.80;;;;;;;;;;10368021;28;20189;-63
2023/01/04 00:35:37;;;;;;;4.80;1.73;;;;;;;;;;10373806;28;20686;-62
2023/01/04 00:40:37;;;;;;;3.47;1.70;;;;;;;;;;10372950;28;20671;-64
2023/01/04 00:45:37;;;;;;;1.30;1.20;;;;;;;;;;10373065;28;20249;-62
2023/01/04 00:50:37;;;;;;;2.30;1.50;;;;;;;;;;10372582;28;20273;-63
2023/01/04 00:55:37;;;;;;;2.90;1.50;;;;;;;;;;10371916;28;20347;-64
2023/01/04 01:00:38;;;;;;;1.57;1.43;;;;;;;;;;10372584;28;20691;-65
2023/01/04 01:05:38;;;;;;;1.93;1.43;;;;;;;;;;10371625;28;20722;-62
2023/01/04 01:10:38;;;;;;;3.30;1.50;;;;;;;;;;10371902;28;20191;-64
2023/01/04 01:15:39;;;;;;;3.53;1.40;;;;;;;;;;10370822;28;20618;-64
2023/01/04 01:20:39;;;;;;;1.50;1.27;;;;;;;;;;10371972;28;20674;-64
2023/01/04 01:25:41;;;;;;;4.10;1.60;;;;;;;;;;10370374;28;20714;-63
2023/01/04 01:30:41;;;;;;;1.30;1.20;;;;;;;;;;10371255;28;20193;-62
2023/01/04 01:35:41;;;;;;;3.00;1.53;;;;;;;;;;10370380;28;20251;-64
2023/01/04 01:40:42;;;;;;;6.20;1.67;;;;;;;;;;10370105;28;20193;-63
2023/01/04 01:45:42;;;;;;;2.10;1.40;;;;;;;;;;10369713;28;20632;-64
2023/01/04 01:50:49;;;;;;;2.23;1.50;;;;;;;;;;10370522;28;20201;-62
2023/01/04 01:55:50;;;;;;;1.80;1.37;;;;;;;;;;10369319;28;20471;-61
2023/01/04 02:00:50;;;;;;;1.93;1.63;;;;;;;;;;10369100;28;20197;-64
2023/01/04 02:05:52;;;;;;;1.60;1.20;;;;;;;;;;10367755;28;20703;-62
2023/01/04 02:10:52;;;;;;;1.10;1.10;;;;;;;;;;10369296;28;20555;-64
2023/01/04 02:16:04;;;;;;;3.47;1.63;;;;;;;;;;10368459;28;20213;-64
2023/01/04 02:21:07;;;;;;;2.80;1.47;;;;;;;;;;10368597;28;20190;-63
2023/01/04 02:26:16;;;;;;;1.63;1.20;;;;;;;;;;10462585;23;20243;-59
2023/01/04 02:31:17;;;;;;;2.03;1.30;;;;;;;;;;10450833;28;20647;-59
2023/01/04 02:36:26;;;;;;;2.80;1.27;;;;;;;;;;10450298;28;20218;-56
2023/01/04 02:41:26;;;;;;;2.27;1.40;;;;;;;;;;10450342;28;20257;-59
2023/01/04 02:46:29;;;;;;;2.13;1.40;;;;;;;;;;10449647;28;20281;-55
2023/01/04 02:51:37;;;;;;;2.07;1.23;;;;;;;;;;10449706;28;20214;-59
2023/01/04 02:56:40;;;;;;;3.30;1.70;;;;;;;;;;10449034;28;20565;-58
2023/01/04 03:07:24;;;;;;;3.27;1.53;;;;;;;;;;10449219;28;20262;-61
2023/01/04 03:12:32;;;;;;;7.13;3.67;;;;;;;;;;10448209;28;20369;-59
2023/01/04 03:17:38;;;;;;;7.13;4.07;;;;;;;;;;10449398;28;20195;-59
2023/01/04 03:49:32;;;;;;;5.43;3.27;;;;;;;;;;10406842;28;20191;-59
2023/01/04 03:54:35;;;;;;;2.60;2.23;;;;;;;;;;10405941;28;20240;-56
2023/01/04 03:59:38;;;;;;;5.43;3.30;;;;;;;;;;10407322;28;20207;-59
2023/01/04 04:09:58;;;;;;;5.50;3.90;;;;;;;;;;10440658;28;20273;-59
2023/01/04 04:14:58;;;;;;;9.03;3.93;;;;;;;;;;10439142;28;20211;-56
2023/01/04 04:19:58;;;;;;;8.53;3.30;;;;;;;;;;10440187;28;20657;-59
2023/01/04 04:24:58;;;;;;;9.27;3.83;;;;;;;;;;10440135;28;20293;-59
2023/01/04 04:29:59;;;;;;;5.07;3.63;;;;;;;;;;10440704;28;20194;-60
2023/01/04 04:34:59;;;;;;;3.13;2.80;;;;;;;;;;10440104;28;20204;-59
2023/01/04 04:40:00;;;;;;;5.20;3.67;;;;;;;;;;10438966;28;20191;-59
2023/01/04 04:45:00;;;;;;;4.27;3.60;;;;;;;;;;10439711;28;20269;-60
2023/01/04 04:50:01;;;;;;;4.30;3.90;;;;;;;;;;10440169;28;20205;-59
2023/01/04 04:55:01;;;;;;;6.27;3.33;;;;;;;;;;10439714;28;20210;-59
2023/01/04 05:00:01;;;;;;;3.00;2.57;;;;;;;;;;10440083;28;20202;-53
2023/01/04 05:05:02;;;;;;;4.43;2.97;;;;;;;;;;10445814;28;20323;-58
2023/01/04 05:10:02;;;;;;;4.70;2.43;;;;;;;;;;10446980;28;20441;-59
2023/01/04 05:15:02;;;;;;;4.10;2.67;;;;;;;;;;10446526;28;20562;-58
2023/01/04 05:20:03;;;;;;;3.00;2.17;;;;;;;;;;10454056;28;20573;-59
2023/01/04 05:25:03;;;;;;;5.80;3.07;;;;;;;;;;10453469;28;20231;-60
2023/01/04 05:35:22;;;;;;;6.60;3.77;;;;;;;;;;10452926;28;20219;-60
2023/01/04 05:40:23;;;;;;;3.88;2.75;;;;;;;;;;10453786;28;20598;-57
2023/01/04 05:45:23;;;;;;;4.57;3.07;;;;;;;;;;10452416;28;20231;-59
2023/01/04 05:50:23;;;;;;;6.00;3.13;;;;;;;;;;10453232;28;20446;-57
2023/01/04 05:55:24;;;;;;;6.20;2.93;;;;;;;;;;10452768;28;20825;-59
2023/01/04 06:00:24;;;;;;;6.80;3.13;;;;;;;;;;10452506;28;20203;-61
2023/01/04 06:05:24;;;;;;;3.37;3.07;;;;;;;;;;10452353;28;20277;-61
2023/01/04 06:10:24;;;;;;;4.53;2.90;;;;;;;;;;10452369;28;20470;-55
2023/01/04 06:15:24;;;;;;;4.20;2.80;;;;;;;;;;10451511;28;20445;-58
2023/01/04 06:20:25;;;;;;;4.17;3.17;;;;;;;;;;10451998;28;20569;-58
2023/01/04 06:25:25;;;;;;;3.30;2.50;;;;;;;;;;10451173;28;20236;-60
2023/01/04 06:30:25;;;;;;;2.50;1.93;;;;;;;;;;10451405;28;20556;-57
2023/01/04 06:35:25;;;;;;;3.03;2.47;;;;;;;;;;10450861;28;20212;-60
2023/01/04 06:40:25;;;;;;;4.73;2.77;;;;;;;;;;10451672;28;20557;-60
2023/01/04 06:45:26;;;;;;;4.03;2.63;;;;;;;;;;10449941;28;20645;-60
2023/01/04 06:50:26;;;;;;;4.13;2.63;;;;;;;;;;10451129;28;20176;-59
2023/01/04 06:55:28;;;;;;;3.60;2.53;;;;;;;;;;10449515;28;20729;-59
2023/01/04 07:00:28;;;;;;;3.07;2.47;;;;;;;;;;10450190;28;20266;-56
2023/01/04 07:05:28;;;;;;;2.23;2.03;;;;;;;;;;10449090;28;20370;-57
2023/01/04 07:10:29;;;;;;;2.63;2.27;;;;;;;;;;10441946;28;20188;-60
2023/01/04 07:15:29;;;;;;;3.90;3.23;;;;;;;;;;10426529;28;20224;-58
2023/01/04 07:20:29;;;;;;;2.33;1.90;;;;;;;;;;10448716;28;20655;-57
2023/01/04 07:25:29;;;;;;;4.37;2.20;;;;;;;;;;10448432;28;20223;-60
2023/01/04 07:30:29;;;;;;;2.93;2.70;;;;;;;;;;10448882;28;20449;-56
2023/01/04 07:35:30;;;;;;;3.37;1.90;;;;;;;;;;10448729;28;20230;-59
2023/01/04 07:40:30;;;;;;;2.90;2.27;;;;;;;;;;10448133;28;20196;-55
2023/01/04 07:45:30;;;;;;;3.33;2.40;;;;;;;;;;10448313;28;20492;-58
2023/01/04 07:50:30;;;;;;;2.37;1.70;;;;;;;;;;10448949;28;20242;-59
2023/01/04 07:55:31;;;;;;;3.73;2.50;;;;;;;;;;10448030;28;20215;-58
2023/01/04 08:00:31;;;;;;;4.27;2.50;;;;;;;;;;10433317;28;20200;-60
2023/01/04 08:05:32;;;;;;;4.30;1.80;;;;;;;;;;10445267;28;20314;-60
2023/01/04 08:10:32;;;;;;;5.03;1.60;;;;;;;;;;10444353;28;20180;-59
2023/01/04 08:15:32;;;;;;;3.30;2.10;;;;;;;;;;10442678;28;20709;-57
2023/01/04 08:20:32;;;;;;;1.60;1.50;;;;;;;;;;10445106;28;20199;-60
2023/01/04 08:25:33;;;;;;;3.27;1.77;;;;;;;;;;10445301;28;20251;-60
2023/01/04 08:30:33;;;;;;;1.87;1.77;;;;;;;;;;10456534;28;20654;-59
2023/01/04 08:35:33;;;;;;;2.50;2.10;;;;;;;;;;10460537;28;20263;-60
2023/01/04 08:40:33;;;;;;;1.90;1.70;;;;;;;;;;10432716;28;21179;-59
2023/01/04 08:45:33;;;;;;;2.97;2.30;;;;;;;;;;10407822;28;20223;-59
2023/01/04 08:50:34;;;;;;;1.63;1.53;;;;;;;;;;10430939;28;20287;-59
2023/01/04 08:55:35;;;;;;;1.47;1.27;;;;;;;;;;10445984;28;21205;-60
2023/01/04 09:00:35;;;;;;;1.87;1.60;;;;;;;;;;10446579;28;20205;-57
2023/01/04 09:05:35;;;;;;;2.60;1.80;;;;;;;;;;10445785;28;20498;-60
2023/01/04 09:10:38;;;;;;;1.50;1.40;;;;;;;;;;10447718;28;20188;-59
2023/01/04 09:15:39;;;;;;;1.30;1.20;;;;;;;;;;10446207;28;20207;-60
2023/01/04 09:20:39;;;;;;;3.10;2.00;;;;;;;;;;10445336;28;20200;-58
2023/01/04 09:25:39;;;;;;;2.03;1.40;;;;;;;;;;10444666;28;20227;-58
2023/01/04 09:30:39;;;;;;;1.00;1.00;;;;;;;;;;10444350;28;20446;-61
2023/01/04 09:35:39;;;;;;;1.50;1.40;;;;;;;;;;10444704;28;20208;-59
2023/01/04 09:40:48;;;;;;;2.27;2.07;;;;;;;;;;10445028;28;20271;-60
2023/01/04 09:45:51;;;;;;;3.93;2.60;;;;;;;;;;10444849;28;20249;-59
2023/01/04 09:51:00;;;;;;;1.30;1.20;;;;;;;;;;10443735;28;20190;-59
2023/01/04 09:56:06;;;;;;;2.70;1.77;;;;;;;;;;10444892;28;20215;-60
2023/01/04 10:01:13;;;;;;;2.27;1.07;;;;;;;;;;10442357;28;20257;-60
2023/01/04 10:06:14;;;;;;;2.53;1.60;;;;;;;;;;10443211;28;20302;-61
2023/01/04 10:11:23;;;;;;;1.47;1.37;;;;;;;;;;10445137;28;20180;-58
2023/01/04 10:16:38;;;;;;;1.57;1.47;;;;;;;;;;10443873;28;20301;-56
2023/01/04 10:21:41;;;;;;;2.80;2.07;;;;;;;;;;10443069;28;20279;-57
2023/01/04 10:26:45;;;;;;;6.20;2.50;;;;;;;;;;10442769;28;20569;-60
2023/01/04 10:31:48;;;;;;;2.90;2.57;;;;;;;;;;10443257;28;20223;-60
2023/01/04 10:36:50;;;;;;;3.17;2.20;;;;;;;;;;10441712;28;20188;-60
2023/01/04 10:41:59;;;;;;;4.30;2.70;;;;;;;;;;10442727;28;20306;-62
2023/01/04 10:47:18;;;;;;;3.47;2.57;;;;;;;;;;10443788;28;20226;-61
2023/01/04 10:52:20;;;;;;;2.07;1.60;;;;;;;;;;10442898;28;20698;-62
2023/01/04 10:57:25;;;;;;;2.83;2.00;;;;;;;;;;10443148;28;20196;-60
2023/01/04 11:02:30;;;;;;;2.07;1.77;;;;;;;;;;10441328;28;20575;-61
2023/01/04 11:07:35;;;;;;;1.70;1.60;;;;;;;;;;10442515;28;20219;-61
2023/01/04 11:12:35;;;;;;;2.07;1.30;;;;;;;;;;10441554;28;20212;-61
2023/01/04 11:17:36;;;;;;;1.17;1.07;;;;;;;;;;10442134;28;20188;-60
2023/01/04 11:22:39;;;;;;;1.40;1.30;;;;;;;;;;10441481;28;20350;-62
2023/01/04 11:27:48;;;;;;;1.20;1.20;;;;;;;;;;10440844;28;20251;-61
2023/01/04 11:33:04;;;;;;;1.23;0.97;;;;;;;;;;10441451;28;20204;-59
2023/01/04 11:38:13;;;;;;;1.20;1.10;;;;;;;;;;10439963;28;20238;-61
2023/01/04 11:43:18;;;;;;;1.50;0.87;;;;;;;;;;10439687;28;20278;-62
2023/01/04 11:48:18;;;;;;;1.30;1.20;;;;;;;;;;10440425;28;20251;-61
2023/01/04 11:53:22;;;;;;;1.48;1.00;;;;;;;;;;10440072;28;20296;-59
2023/01/04 11:58:26;;;;;;;1.70;1.27;;;;;;;;;;10440444;28;20669;-61
2023/01/04 12:03:28;;;;;;;1.50;1.13;;;;;;;;;;10438545;28;20208;-60
2023/01/04 12:08:30;;;;;;;1.50;1.23;;;;;;;;;;10439376;28;20192;-60
2023/01/04 12:13:31;;;;;;;2.47;1.33;;;;;;;;;;10440672;28;20248;-58
2023/01/04 12:18:36;;;;;;;1.43;1.33;;;;;;;;;;10438862;28;20659;-59
2023/01/04 12:23:36;;;;;;;1.13;1.10;;;;;;;;;;10439137;28;20602;-59
2023/01/04 12:28:41;;;;;;;1.27;1.00;;;;;;;;;;10447170;28;20206;-59
2023/01/04 12:33:41;;;;;;;1.07;0.97;;;;;;;;;;10445951;28;20215;-58
2023/01/04 12:38:50;;;;;;;1.30;1.00;;;;;;;;;;10447722;28;20224;-59
2023/01/04 12:43:52;;;;;;;1.07;1.07;;;;;;;;;;10447213;28;20369;-58
2023/01/04 12:49:04;;;;;;;1.20;0.90;;;;;;;;;;10445734;28;20557;-57
2023/01/04 12:54:05;;;;;;;0.90;0.90;;;;;;;;;;10447888;28;20265;-59
2023/01/04 12:59:09;;;;;;;2.00;1.17;;;;;;;;;;10446582;28;20682;-60
2023/01/04 13:04:27;;;;;;;1.27;0.93;;;;;;;;;;10445572;28;20224;-60
2023/01/04 13:09:31;;;;;;;6.30;5.60;;;;;;;;;;10446513;28;20231;-60
2023/01/04 13:14:36;;;;;;;1.03;0.97;;;;;;;;;;10445342;28;20718;-62
2023/01/04 13:19:37;;;;;;;1.90;1.70;;;;;;;;;;10445746;28;20565;-61
2023/01/04 13:24:41;;;;;;;2.13;1.60;;;;;;;;;;10442417;28;20595;-61
2023/01/04 13:29:41;;;;;;;0.90;0.90;;;;;;;;;;10445209;28;20637;-60
2023/01/04 13:34:47;;;;;;;2.63;1.40;;;;;;;;;;10443819;28;20310;-58
2023/01/04 13:39:49;;;;;;;1.30;1.00;;;;;;;;;;10443670;28;20200;-58
2023/01/04 13:44:52;;;;;;;1.00;1.00;;;;;;;;;;10442262;28;20594;-60
2023/01/04 13:49:52;;;;;;;0.90;0.90;;;;;;;;;;10445191;28;20220;-58
2023/01/04 13:55:11;;;;;;;0.83;0.83;;;;;;;;;;10443278;28;20899;-59
2023/01/04 14:00:12;;;;;;;5.73;2.37;;;;;;;;;;10444525;28;20194;-59
2023/01/04 14:05:14;;;;;;;1.33;0.90;;;;;;;;;;10443460;28;20705;-59
2023/01/04 14:10:16;;;;;;;0.70;0.70;;;;;;;;;;10442727;28;20697;-59
2023/01/04 14:15:20;;;;;;;0.80;0.80;;;;;;;;;;10441468;28;20228;-59
2023/01/04 14:20:23;;;;;;;2.03;0.80;;;;;;;;;;10444340;28;20254;-59
2023/01/04 14:25:29;;;;;;;0.87;0.83;;;;;;;;;;10438330;28;21072;-59
2023/01/04 14:30:29;;;;;;;1.37;0.83;;;;;;;;;;10437131;28;20563;-57
2023/01/04 14:35:29;;;;;;;0.90;0.90;;;;;;;;;;10439805;28;20223;-57
2023/01/04 14:40:30;;;;;;;0.80;0.80;;;;;;;;;;10439455;28;20729;-57
2023/01/04 14:45:30;;;;;;;0.80;0.80;;;;;;;;;;10439427;28;20231;-56
2023/01/04 14:50:30;;;;;;;1.17;0.93;;;;;;;;;;10438866;28;20192;-59
2023/01/04 14:55:31;;;;;;;0.90;0.90;;;;;;;;;;10439844;28;20293;-58
2023/01/04 15:00:31;;;;;;;2.90;2.60;;;;;;;;;;10440599;28;20349;-59
2023/01/04 15:05:32;;;;;;;4.33;3.57;;;;;;;;;;10435252;28;20330;-61
2023/01/04 15:10:32;;;;;;;3.87;3.57;;;;;;;;;;10445134;28;20242;-59
2023/01/04 15:15:32;;;;;;;1.83;1.73;;;;;;;;;;10436572;28;20295;-60
2023/01/04 15:20:33;;;;;;;2.67;1.77;;;;;;;;;;10439720;28;20199;-58
2023/01/04 15:25:33;;;;;;;1.97;1.33;;;;;;;;;;10439111;28;20784;-61
2023/01/04 15:30:34;;;;;;;2.53;1.10;;;;;;;;;;10439998;28;20181;-60
2023/01/04 15:35:34;;;;;;;1.60;0.90;;;;;;;;;;10439894;28;20225;-60
2023/01/04 15:40:34;;;;;;;1.23;1.13;;;;;;;;;;10439205;28;20559;-61
2023/01/04 15:45:36;;;;;;;1.37;0.80;;;;;;;;;;10439279;28;20593;-60
2023/01/04 15:50:37;;;;;;;1.00;1.00;;;;;;;;;;10400926;28;20202;-60
2023/01/04 15:55:37;;;;;;;1.10;1.10;;;;;;;;;;10434716;28;20208;-60
2023/01/04 16:00:38;;;;;;;1.63;1.10;;;;;;;;;;10454693;28;20184;-60
2023/01/04 16:05:38;;;;;;;0.97;0.97;;;;;;;;;;10429963;28;20212;-61
2023/01/04 16:10:38;;;;;;;1.27;1.17;;;;;;;;;;10438025;28;20199;-61
2023/01/04 16:15:39;;;;;;;2.60;1.23;;;;;;;;;;10446077;28;20295;-59
2023/01/04 16:20:40;;;;;;;1.10;1.00;;;;;;;;;;10439906;28;20191;-63
2023/01/04 16:25:40;;;;;;;1.17;1.00;;;;;;;;;;10437706;28;20223;-61
2023/01/04 16:30:41;;;;;;;1.10;1.00;;;;;;;;;;10438887;28;20667;-59
2023/01/04 16:35:41;;;;;;;1.17;0.80;;;;;;;;;;10440825;28;20220;-60
2023/01/04 16:40:41;;;;;;;0.80;0.80;;;;;;;;;;10442869;28;20180;-60
2023/01/04 16:45:41;;;;;;;1.20;1.10;;;;;;;;;;10441156;28;20298;-60
2023/01/04 16:50:41;;;;;;;1.20;1.10;;;;;;;;;;10446980;28;20196;-60
2023/01/04 16:55:42;;;;;;;0.80;0.80;;;;;;;;;;10445585;28;20204;-61
2023/01/04 17:00:42;;;;;;;1.10;1.00;;;;;;;;;;10463862;28;20198;-59
2023/01/04 17:05:42;;;;;;;1.10;1.00;;;;;;;;;;10458234;28;20215;-61
2023/01/04 17:10:42;;;;;;;0.93;0.90;;;;;;;;;;10445980;28;20192;-60
2023/01/04 17:15:42;;;;;;;1.17;0.90;;;;;;;;;;10453448;28;20220;-61
2023/01/04 17:20:42;;;;;;;8.97;7.03;;;;;;;;;;10454070;28;20203;-59
2023/01/04 17:25:43;;;;;;;1.10;1.10;;;;;;;;;;10453800;28;20608;-61
2023/01/04 17:30:43;;;;;;;1.10;1.00;;;;;;;;;;10454384;28;20195;-59
2023/01/04 17:35:43;;;;;;;0.80;0.80;;;;;;;;;;10453665;28;20294;-61
2023/01/04 17:40:43;;;;;;;6.53;3.00;;;;;;;;;;10454121;28;20238;-61
2023/01/04 17:45:44;;;;;;;1.83;1.60;;;;;;;;;;10453194;28;20246;-61
2023/01/04 17:50:44;;;;;;;1.30;1.20;;;;;;;;;;10435697;28;20209;-60
2023/01/04 17:55:44;;;;;;;1.27;1.17;;;;;;;;;;10452951;28;20212;-60
2023/01/04 18:00:44;;;;;;;1.03;0.93;;;;;;;;;;10453197;28;20192;-62
2023/01/04 18:05:54;;;;;;;2.27;1.80;;;;;;;;;;10451699;28;20219;-63
2023/01/04 18:10:54;;;;;;;3.90;2.70;;;;;;;;;;10452857;28;20192;-63
2023/01/04 18:16:02;;;;;;;1.73;1.50;;;;;;;;;;10452349;28;20212;-62
2023/01/04 18:21:20;;;;;;;0.73;0.73;;;;;;;;;;10452877;28;20223;-62
2023/01/04 18:26:20;;;;;;;27.83;9.50;;;;;;;;;;10450704;28;20606;-62
2023/01/04 18:31:21;;;;;;;0.90;0.90;;;;;;;;;;10434494;28;20184;-61
2023/01/04 18:36:25;;;;;;;1.83;1.50;;;;;;;;;;10450664;28;20232;-61
2023/01/04 18:41:26;;;;;;;0.80;0.80;;;;;;;;;;10451724;28;20267;-62
2023/01/04 18:46:26;;;;;;;0.60;0.60;;;;;;;;;;10450786;28;20227;-61
2023/01/04 18:51:27;;;;;;;1.10;1.00;;;;;;;;;;10450489;28;20728;-62
2023/01/04 18:56:28;;;;;;;0.60;0.60;;;;;;;;;;10450663;28;20303;-58
2023/01/04 19:01:30;;;;;;;0.70;0.70;;;;;;;;;;10450452;28;20219;-60
2023/01/04 19:06:30;;;;;;;1.33;1.23;;;;;;;;;;10449603;28;20698;-62
2023/01/04 19:11:30;;;;;;;0.60;0.60;;;;;;;;;;10449566;28;20196;-60
2023/01/04 19:16:30;;;;;;;0.50;0.50;;;;;;;;;;10448120;28;20200;-61
2023/01/04 19:21:31;;;;;;;0.70;0.70;;;;;;;;;;10449676;28;20662;-57
2023/01/04 19:26:31;;;;;;;0.80;0.80;;;;;;;;;;10447812;28;20243;-61
2023/01/04 19:31:31;;;;;;;2.17;1.10;;;;;;;;;;10448094;28;20654;-61
2023/01/04 19:36:31;;;;;;;1.00;0.80;;;;;;;;;;10447237;28;20241;-62
2023/01/04 19:41:33;;;;;;;4.10;1.60;;;;;;;;;;10448168;28;20283;-59
2023/01/04 19:46:36;;;;;;;0.50;0.50;;;;;;;;;;10446735;28;20249;-61
2023/01/04 19:51:36;;;;;;;1.10;0.93;;;;;;;;;;10447613;28;20199;-61
2023/01/04 19:56:37;;;;;;;0.83;0.50;;;;;;;;;;10446959;28;20216;-60
2023/01/04 20:01:37;;;;;;;0.40;0.40;;;;;;;;;;10447045;28;20192;-59
2023/01/04 20:06:37;;;;;;;0.60;0.60;;;;;;;;;;10446656;28;20228;-62
2023/01/04 20:11:37;;;;;;;2.30;0.60;;;;;;;;;;10447451;28;20670;-61
2023/01/04 20:16:38;;;;;;;0.87;0.87;;;;;;;;;;10446330;28;20211;-62
2023/01/04 20:21:38;;;;;;;0.50;0.50;;;;;;;;;;10446976;28;20191;-62
2023/01/04 20:26:38;;;;;;;0.50;0.50;;;;;;;;;;10405312;28;20698;-59
2023/01/04 20:31:39;;;;;;;1.13;1.03;;;;;;;;;;10405519;28;20192;-62
2023/01/04 20:36:40;;;;;;;2.47;0.70;;;;;;;;;;10405045;28;20441;-61
2023/01/04 20:43:31;;;;;;;2.33;1.53;;;;;;;;;;10406563;28;20192;-59
2023/01/04 20:47:00;;;;;;;0.70;0.70;;;;;;;;;;10407992;28;20215;-60
2023/01/04 20:52:00;;;;;;;1.27;0.93;;;;;;;;;;10412879;28;20204;-59
2023/01/04 20:57:00;;;;;;;0.90;0.90;;;;;;;;;;10413389;28;20189;-61
2023/01/04 21:02:02;;;;;;;0.53;0.50;;;;;;;;;;10412062;28;20262;-61
2023/01/04 21:07:02;;;;;;;0.60;0.60;;;;;;;;;;10412788;28;20212;-61
2023/01/04 21:12:02;;;;;;;0.50;0.50;;;;;;;;;;10412364;28;20203;-61
2023/01/04 21:17:03;;;;;;;0.60;0.60;;;;;;;;;;10411543;28;20493;-61
2023/01/04 21:22:03;;;;;;;0.50;0.50;;;;;;;;;;10415543;28;20231;-61
2023/01/04 21:27:04;;;;;;;0.70;0.70;;;;;;;;;;10453757;28;20698;-61
2023/01/04 21:32:04;;;;;;;0.50;0.50;;;;;;;;;;10453968;28;20690;-61
2023/01/04 21:37:04;;;;;;;0.50;0.50;;;;;;;;;;10454262;28;20269;-61
2023/01/04 21:42:04;;;;;;;0.50;0.50;;;;;;;;;;10450752;28;20473;-61
2023/01/04 21:47:04;;;;;;;0.50;0.50;;;;;;;;;;10453483;28;20211;-62
2023/01/04 21:52:05;;;;;;;0.90;0.50;;;;;;;;;;10467244;28;20567;-59
2023/01/04 21:57:08;;;;;;;0.50;0.50;;;;;;;;;;10470602;28;20551;-61
2023/01/04 22:02:12;;;;;;;0.73;0.70;;;;;;;;;;10457833;28;20748;-60
2023/01/04 22:07:13;;;;;;;1.00;0.77;;;;;;;;;;10451633;28;20657;-62
2023/01/04 22:12:14;;;;;;;0.50;0.50;;;;;;;;;;10452118;28;20296;-60
2023/01/04 22:17:15;;;;;;;0.67;0.60;;;;;;;;;;10451549;28;20192;-61
2023/01/04 22:22:15;;;;;;;3.30;0.70;;;;;;;;;;10451610;28;20266;-60
2023/01/04 22:27:15;;;;;;;1.00;0.70;;;;;;;;;;10452293;28;20235;-59
2023/01/04 22:32:15;;;;;;;1.17;0.70;;;;;;;;;;10450671;28;20278;-59
2023/01/04 22:37:15;;;;;;;2.63;0.80;;;;;;;;;;10452392;28;20187;-58
2023/01/04 22:42:15;;;;;;;2.63;0.70;;;;;;;;;;10451020;28;20659;-61
2023/01/04 22:47:16;;;;;;;1.20;0.70;;;;;;;;;;10451259;28;20227;-60
2023/01/04 22:52:16;;;;;;;1.07;0.90;;;;;;;;;;10451266;28;20223;-61
2023/01/04 22:57:16;;;;;;;0.63;0.63;;;;;;;;;;10450283;28;20450;-61
2023/01/04 23:02:16;;;;;;;3.90;0.90;;;;;;;;;;10450781;28;20212;-60
2023/01/04 23:07:16;;;;;;;1.83;0.80;;;;;;;;;;10450718;28;20330;-63
2023/01/04 23:12:16;;;;;;;3.10;1.00;;;;;;;;;;10448633;28;20212;-65
2023/01/04 23:17:17;;;;;;;4.50;1.20;;;;;;;;;;10450316;28;20271;-63
2023/01/04 23:22:17;;;;;;;2.40;0.97;;;;;;;;;;10449617;28;20678;-65
2023/01/04 23:27:17;;;;;;;3.60;0.83;;;;;;;;;;10449661;28;20228;-62
2023/01/04 23:32:17;;;;;;;5.13;0.93;;;;;;;;;;10449394;28;20292;-62
2023/01/04 23:37:18;;;;;;;2.13;0.90;;;;;;;;;;10449408;28;20208;-61
2023/01/04 23:42:18;;;;;;;1.63;1.10;;;;;;;;;;10448856;28;20442;-61
2023/01/04 23:47:18;;;;;;;3.70;1.00;;;;;;;;;;10449347;28;20212;-61
2023/01/04 23:52:18;;;;;;;1.30;1.00;;;;;;;;;;10448073;28;20685;-62
2023/01/04 23:57:18;;;;;;;4.43;1.13;;;;;;;;;;10449087;28;20586;-62
